createdAt,value
2018-07-11T00:00:31.499Z,94.93
2018-07-11T00:01:31.413Z,94.74
2018-07-11T00:02:31.342Z,94.36
2018-07-11T00:03:31.263Z,94.93
2018-07-11T00:04:31.184Z,95.22
2018-07-11T00:05:31.109Z,94.84
2018-07-11T00:06:31.036Z,94.84
2018-07-11T00:07:30.949Z,94.74
2018-07-11T00:08:30.877Z,94.98
2018-07-11T00:09:30.799Z,94.02
2018-07-11T00:10:30.722Z,94.79
2018-07-11T00:11:30.642Z,94.89
2018-07-11T00:12:30.570Z,94.98
2018-07-11T00:13:30.492Z,95.07
2018-07-11T00:14:30.413Z,95.07
2018-07-11T00:15:30.336Z,94.02
2018-07-11T00:16:30.251Z,94.98
2018-07-11T00:17:30.178Z,94.41
2018-07-11T00:18:30.109Z,94.41
2018-07-11T00:19:30.023Z,95.07
2018-07-11T00:20:29.949Z,94.60
2018-07-11T00:21:29.868Z,94.79
2018-07-11T00:22:29.795Z,95.27
2018-07-11T00:23:29.713Z,94.98
2018-07-11T00:24:29.643Z,94.98
2018-07-11T00:25:29.564Z,96.03
2018-07-11T00:26:29.487Z,95.65
2018-07-11T00:27:29.423Z,94.98
2018-07-11T00:28:29.331Z,94.41
2018-07-11T00:29:29.250Z,95.41
2018-07-11T00:30:29.177Z,95.32
2018-07-11T00:31:29.095Z,95.46
2018-07-11T00:32:29.017Z,95.56
2018-07-11T00:33:28.941Z,95.46
2018-07-11T00:34:28.861Z,96.03
2018-07-11T00:35:28.785Z,95.17
2018-07-11T00:36:28.713Z,95.51
2018-07-11T00:37:28.894Z,95.61
2018-07-11T00:38:28.555Z,96.18
2018-07-11T00:39:28.484Z,95.32
2018-07-11T00:40:28.398Z,95.75
2018-07-11T00:41:28.322Z,95.75
2018-07-11T00:42:28.258Z,95.75
2018-07-11T00:43:28.169Z,94.98
2018-07-11T00:44:28.090Z,95.94
2018-07-11T00:45:28.013Z,95.07
2018-07-11T00:46:27.942Z,95.07
2018-07-11T00:47:27.869Z,94.70
2018-07-11T00:48:27.781Z,95.36
2018-07-11T00:49:27.703Z,96.22
2018-07-11T00:50:27.631Z,95.27
2018-07-11T00:51:27.556Z,95.27
2018-07-11T00:52:27.479Z,96.03
2018-07-11T00:53:27.402Z,95.46
2018-07-11T00:54:27.322Z,95.17
2018-07-11T00:55:27.246Z,94.60
2018-07-11T00:56:27.164Z,95.65
2018-07-11T00:57:27.091Z,94.98
2018-07-11T00:58:27.014Z,95.51
2018-07-11T00:59:26.935Z,95.03
2018-07-11T01:00:26.859Z,95.61
2018-07-11T01:01:26.776Z,95.12
2018-07-11T01:02:26.703Z,95.32
2018-07-11T01:03:26.622Z,95.12
2018-07-11T01:04:26.554Z,95.51
2018-07-11T01:05:26.470Z,95.79
2018-07-11T01:06:26.393Z,95.51
2018-07-11T01:07:26.310Z,95.61
2018-07-11T01:08:26.235Z,95.98
2018-07-11T01:09:26.156Z,95.89
2018-07-11T01:10:26.085Z,95.61
2018-07-11T01:11:26.002Z,96.46
2018-07-11T01:12:25.928Z,95.89
2018-07-11T01:13:25.849Z,96.27
2018-07-11T01:14:25.774Z,96.17
2018-07-11T01:15:25.698Z,96.17
2018-07-11T01:16:25.622Z,96.08
2018-07-11T01:17:25.549Z,95.51
2018-07-11T01:18:25.458Z,95.70
2018-07-11T01:19:25.386Z,96.08
2018-07-11T01:20:25.309Z,95.70
2018-07-11T01:21:25.229Z,95.70
2018-07-11T01:22:25.152Z,95.70
2018-07-11T01:23:25.077Z,95.65
2018-07-11T01:24:24.992Z,96.32
2018-07-11T01:25:24.920Z,96.42
2018-07-11T01:26:24.838Z,96.27
2018-07-11T01:27:24.764Z,95.84
2018-07-11T01:28:24.682Z,96.61
2018-07-11T01:29:24.612Z,96.03
2018-07-11T01:30:24.526Z,96.61
2018-07-11T01:31:24.452Z,96.51
2018-07-11T01:32:24.369Z,96.70
2018-07-11T01:33:24.292Z,97.47
2018-07-11T01:34:24.212Z,97.66
2018-07-11T01:35:24.149Z,96.22
2018-07-11T01:36:24.057Z,97.18
2018-07-11T01:37:23.981Z,97.18
2018-07-11T01:38:23.903Z,97.37
2018-07-11T01:39:23.826Z,97.47
2018-07-11T01:40:23.748Z,96.32
2018-07-11T01:41:23.680Z,97.56
2018-07-11T01:42:23.594Z,97.13
2018-07-11T01:43:23.515Z,96.98
2018-07-11T01:44:23.433Z,97.27
2018-07-11T01:45:23.358Z,97.52
2018-07-11T01:46:23.278Z,98.08
2018-07-11T01:47:23.213Z,98.47
2018-07-11T01:48:23.126Z,97.61
2018-07-11T01:49:23.052Z,97.32
2018-07-11T01:50:22.972Z,98.08
2018-07-11T01:51:22.890Z,98.28
2018-07-11T01:52:22.812Z,96.75
2018-07-11T01:53:22.741Z,98.08
2018-07-11T01:54:22.657Z,98.28
2018-07-11T01:55:22.581Z,97.99
2018-07-11T01:56:22.501Z,97.61
2018-07-11T01:57:22.423Z,98.28
2018-07-11T01:58:22.345Z,97.80
2018-07-11T01:59:22.311Z,98.47
2018-07-11T02:00:22.190Z,98.08
2018-07-11T02:01:22.113Z,98.18
2018-07-11T02:02:22.046Z,98.28
2018-07-11T02:03:21.960Z,98.28
2018-07-11T02:04:21.891Z,97.71
2018-07-11T02:05:21.807Z,98.08
2018-07-11T02:06:21.724Z,98.28
2018-07-11T02:07:21.645Z,97.99
2018-07-11T02:08:21.565Z,98.08
2018-07-11T02:09:21.489Z,97.71
2018-07-11T02:10:21.420Z,98.85
2018-07-11T02:11:21.335Z,98.37
2018-07-11T02:12:21.264Z,98.57
2018-07-11T02:13:21.185Z,98.85
2018-07-11T02:14:21.105Z,98.57
2018-07-11T02:15:21.038Z,98.57
2018-07-11T02:16:20.946Z,98.66
2018-07-11T02:17:20.871Z,98.66
2018-07-11T02:18:20.797Z,98.08
2018-07-11T02:19:20.719Z,98.08
2018-07-11T02:20:20.634Z,98.18
2018-07-11T02:21:20.560Z,98.57
2018-07-11T02:22:20.480Z,98.08
2018-07-11T02:23:20.403Z,98.08
2018-07-11T02:24:20.329Z,97.99
2018-07-11T02:25:20.247Z,98.18
2018-07-11T02:26:20.170Z,98.57
2018-07-11T02:27:20.105Z,98.28
2018-07-11T02:28:20.012Z,97.99
2018-07-11T02:29:19.939Z,98.08
2018-07-11T02:30:19.859Z,98.08
2018-07-11T02:31:19.785Z,97.99
2018-07-11T02:32:19.702Z,98.18
2018-07-11T02:33:19.638Z,97.89
2018-07-11T02:34:19.547Z,97.99
2018-07-11T02:35:19.473Z,98.08
2018-07-11T02:36:19.395Z,98.37
2018-07-11T02:37:19.313Z,99.23
2018-07-11T02:38:19.238Z,98.66
2018-07-11T02:39:19.167Z,98.28
2018-07-11T02:40:19.082Z,97.80
2018-07-11T02:41:19.008Z,98.47
2018-07-11T02:42:18.925Z,98.28
2018-07-11T02:43:18.855Z,98.37
2018-07-11T02:44:18.769Z,97.89
2018-07-11T02:45:18.700Z,98.57
2018-07-11T02:46:18.625Z,98.18
2018-07-11T02:47:18.538Z,98.28
2018-07-11T02:48:18.463Z,98.18
2018-07-11T02:49:18.381Z,97.42
2018-07-11T02:50:18.306Z,98.47
2018-07-11T02:51:18.229Z,98.18
2018-07-11T02:52:18.161Z,97.32
2018-07-11T02:53:18.074Z,98.37
2018-07-11T02:54:17.993Z,98.28
2018-07-11T02:55:17.921Z,97.89
2018-07-11T02:56:17.837Z,98.47
2018-07-11T02:57:17.758Z,98.18
2018-07-11T02:58:17.696Z,97.80
2018-07-11T02:59:17.604Z,98.08
2018-07-11T03:00:17.529Z,98.57
2018-07-11T03:01:17.450Z,97.61
2018-07-11T03:02:17.379Z,97.66
2018-07-11T03:03:17.298Z,98.18
2018-07-11T03:04:17.220Z,97.75
2018-07-11T03:05:17.139Z,98.32
2018-07-11T03:06:17.059Z,97.37
2018-07-11T03:07:16.983Z,97.66
2018-07-11T03:08:16.900Z,97.18
2018-07-11T03:09:16.830Z,97.47
2018-07-11T03:10:16.757Z,97.47
2018-07-11T03:11:16.669Z,97.37
2018-07-11T03:12:16.592Z,97.75
2018-07-11T03:13:16.513Z,97.56
2018-07-11T03:14:16.437Z,97.27
2018-07-11T03:15:16.363Z,97.37
2018-07-11T03:16:16.288Z,97.37
2018-07-11T03:17:16.201Z,97.85
2018-07-11T03:18:16.123Z,97.27
2018-07-11T03:19:16.046Z,97.37
2018-07-11T03:20:15.968Z,97.37
2018-07-11T03:21:15.898Z,96.70
2018-07-11T03:22:15.824Z,97.27
2018-07-11T03:23:15.734Z,97.37
2018-07-11T03:24:15.660Z,97.37
2018-07-11T03:25:15.576Z,97.47
2018-07-11T03:26:15.501Z,97.37
2018-07-11T03:27:15.430Z,97.18
2018-07-11T03:28:15.343Z,96.70
2018-07-11T03:29:15.265Z,97.13
2018-07-11T03:30:15.192Z,96.94
2018-07-11T03:31:15.116Z,97.47
2018-07-11T03:32:15.031Z,97.13
2018-07-11T03:33:14.962Z,98.18
2018-07-11T03:34:14.873Z,97.32
2018-07-11T03:35:14.802Z,97.80
2018-07-11T03:36:14.724Z,97.32
2018-07-11T03:37:14.644Z,97.22
2018-07-11T03:38:14.563Z,97.56
2018-07-11T03:39:14.495Z,97.51
2018-07-11T03:40:14.409Z,96.56
2018-07-11T03:41:14.328Z,96.75
2018-07-11T03:42:14.251Z,96.27
2018-07-11T03:43:14.180Z,97.32
2018-07-11T03:44:14.097Z,97.03
2018-07-11T03:45:14.026Z,97.13
2018-07-11T03:46:13.935Z,96.94
2018-07-11T03:47:13.862Z,97.61
2018-07-11T03:48:13.786Z,97.08
2018-07-11T03:49:13.701Z,97.89
2018-07-11T03:50:13.639Z,98.08
2018-07-11T03:51:13.553Z,96.75
2018-07-11T03:52:13.473Z,97.61
2018-07-11T03:53:13.389Z,97.42
2018-07-11T03:54:13.320Z,97.03
2018-07-11T03:55:13.233Z,97.13
2018-07-11T03:56:13.156Z,97.13
2018-07-11T03:57:13.084Z,97.99
2018-07-11T03:58:12.999Z,97.42
2018-07-11T03:59:12.922Z,96.66
2018-07-11T04:00:12.840Z,97.61
2018-07-11T04:01:12.763Z,96.37
2018-07-11T04:02:12.688Z,96.17
2018-07-11T04:03:12.631Z,95.98
2018-07-11T04:04:12.532Z,95.70
2018-07-11T04:05:12.459Z,95.98
2018-07-11T04:06:12.376Z,95.70
2018-07-11T04:07:12.292Z,93.79
2018-07-11T04:08:12.215Z,94.36
2018-07-11T04:09:12.145Z,93.79
2018-07-11T04:10:12.063Z,93.51
2018-07-11T04:11:11.984Z,92.50
2018-07-11T04:12:11.900Z,91.50
2018-07-11T04:13:11.829Z,92.07
2018-07-11T04:14:11.751Z,91.21
2018-07-11T04:15:11.706Z,91.31
2018-07-11T04:16:11.589Z,91.88
2018-07-11T04:17:11.513Z,91.60
2018-07-11T04:18:11.434Z,92.26
2018-07-11T04:19:11.444Z,90.45
2018-07-11T04:20:11.276Z,91.50
2018-07-11T04:21:11.208Z,89.97
2018-07-11T04:22:11.125Z,89.40
2018-07-11T04:23:11.047Z,90.26
2018-07-11T04:24:10.960Z,90.17
2018-07-11T04:25:10.884Z,89.40
2018-07-11T04:26:10.808Z,88.07
2018-07-11T04:27:10.746Z,87.49
2018-07-11T04:28:10.649Z,89.50
2018-07-11T04:29:10.573Z,90.55
2018-07-11T04:30:10.500Z,91.98
2018-07-11T04:31:10.416Z,91.41
2018-07-11T04:32:10.405Z,90.55
2018-07-11T04:33:10.340Z,90.83
2018-07-11T04:34:10.233Z,91.31
2018-07-11T04:35:10.153Z,92.07
2018-07-11T04:36:10.701Z,92.74
2018-07-11T04:37:09.998Z,92.97
2018-07-11T04:38:09.910Z,93.22
2018-07-11T04:39:09.849Z,93.51
2018-07-11T04:40:09.790Z,93.93
2018-07-11T04:41:09.633Z,93.93
2018-07-11T04:42:10.205Z,94.51
2018-07-11T04:43:09.549Z,93.93
2018-07-11T04:44:09.462Z,93.36
2018-07-11T04:45:09.372Z,93.36
2018-07-11T04:46:10.051Z,93.17
2018-07-11T04:47:09.235Z,94.03
2018-07-11T04:48:09.092Z,94.89
2018-07-11T04:49:09.020Z,96.13
2018-07-11T04:50:09.552Z,95.98
2018-07-11T04:51:08.892Z,94.31
2018-07-11T04:52:08.782Z,98.08
2018-07-11T04:53:08.714Z,96.27
2018-07-11T04:54:08.619Z,95.41
2018-07-11T04:55:08.580Z,95.22
2018-07-11T04:56:08.488Z,95.51
2018-07-11T04:57:08.455Z,97.23
2018-07-11T04:58:08.341Z,97.03
2018-07-11T04:59:08.263Z,96.94
2018-07-11T05:00:08.154Z,96.46
2018-07-11T05:01:08.107Z,96.56
2018-07-11T05:02:08.021Z,97.03
2018-07-11T05:03:07.928Z,97.23
2018-07-11T05:04:07.865Z,97.61
2018-07-11T05:05:07.770Z,97.03
2018-07-11T05:06:07.753Z,97.52
2018-07-11T05:07:07.685Z,97.89
2018-07-11T05:08:07.598Z,97.75
2018-07-11T05:09:07.521Z,97.71
2018-07-11T05:10:07.388Z,97.42
2018-07-11T05:11:07.370Z,97.13
2018-07-11T05:12:07.297Z,97.28
2018-07-11T05:13:08.209Z,97.94
2018-07-11T05:14:07.150Z,97.71
2018-07-11T05:15:07.562Z,97.32
2018-07-11T05:16:06.981Z,97.13
2018-07-11T05:17:06.912Z,96.94
2018-07-11T05:18:06.836Z,96.32
2018-07-11T05:19:08.712Z,96.94
2018-07-11T05:20:07.174Z,96.94
2018-07-11T05:21:06.632Z,97.47
2018-07-11T05:22:06.504Z,97.37
2018-07-11T05:23:07.187Z,97.28
2018-07-11T05:24:06.374Z,97.85
2018-07-11T05:25:06.253Z,98.52
2018-07-11T05:26:06.191Z,97.47
2018-07-11T05:27:06.135Z,96.99
2018-07-11T05:28:06.045Z,97.08
2018-07-11T05:29:05.977Z,98.04
2018-07-11T05:30:05.900Z,97.56
2018-07-11T05:31:05.783Z,97.75
2018-07-11T05:32:05.732Z,98.23
2018-07-11T05:33:05.642Z,98.61
2018-07-11T05:34:05.588Z,98.23
2018-07-11T05:35:05.506Z,98.66
2018-07-11T05:36:05.424Z,98.33
2018-07-11T05:37:05.333Z,98.66
2018-07-11T05:38:05.285Z,98.38
2018-07-11T05:39:05.146Z,97.42
2018-07-11T05:40:05.085Z,97.61
2018-07-11T05:41:05.702Z,98.18
2018-07-11T05:42:04.971Z,98.47
2018-07-11T05:43:05.097Z,98.28
2018-07-11T05:44:04.812Z,98.28
2018-07-11T05:45:04.760Z,98.47
2018-07-11T05:46:04.602Z,98.66
2018-07-11T05:47:04.562Z,98.75
2018-07-11T05:48:04.465Z,98.66
2018-07-11T05:49:04.449Z,98.75
2018-07-11T05:50:04.345Z,98.75
2018-07-11T05:51:04.271Z,98.38
2018-07-11T05:52:04.226Z,98.28
2018-07-11T05:53:04.134Z,98.47
2018-07-11T05:54:04.050Z,98.95
2018-07-11T05:55:03.980Z,98.66
2018-07-11T05:56:03.908Z,98.66
2018-07-11T05:57:03.810Z,99.62
2018-07-11T05:58:03.747Z,98.47
2018-07-11T05:59:03.665Z,98.66
2018-07-11T06:00:03.610Z,98.75
2018-07-11T06:01:03.500Z,99.00
2018-07-11T06:02:03.447Z,99.29
2018-07-11T06:03:03.339Z,98.90
2018-07-11T06:04:03.252Z,99.10
2018-07-11T06:05:03.210Z,99.10
2018-07-11T06:06:03.135Z,99.67
2018-07-11T06:07:03.064Z,99.38
2018-07-11T06:08:02.966Z,99.86
2018-07-11T06:09:02.892Z,99.10
2018-07-11T06:10:02.798Z,99.67
2018-07-11T06:11:03.576Z,99.67
2018-07-11T06:12:02.630Z,99.19
2018-07-11T06:13:02.612Z,99.19
2018-07-11T06:14:02.475Z,98.43
2018-07-11T06:15:02.381Z,99.00
2018-07-11T06:16:02.362Z,99.19
2018-07-11T06:17:02.291Z,99.10
2018-07-11T06:18:02.180Z,99.00
2018-07-11T06:19:02.117Z,99.86
2018-07-11T06:20:02.714Z,99.38
2018-07-11T06:21:01.977Z,99.05
2018-07-11T06:22:01.881Z,99.05
2018-07-11T06:23:01.826Z,99.15
2018-07-11T06:24:01.759Z,99.43
2018-07-11T06:25:01.619Z,99.81
2018-07-11T06:26:01.541Z,98.57
2018-07-11T06:27:01.489Z,99.24
2018-07-11T06:28:01.401Z,98.47
2018-07-11T06:29:01.308Z,99.15
2018-07-11T06:30:01.236Z,99.52
2018-07-11T06:31:01.153Z,99.72
2018-07-11T06:32:01.148Z,99.15
2018-07-11T06:33:01.005Z,99.10
2018-07-11T06:34:00.929Z,99.19
2018-07-11T06:35:00.849Z,99.00
2018-07-11T06:36:00.775Z,99.00
2018-07-11T06:37:00.758Z,99.00
2018-07-11T06:38:00.779Z,99.00
2018-07-11T06:39:00.627Z,98.52
2018-07-11T06:40:00.468Z,99.00
2018-07-11T06:41:00.430Z,98.91
2018-07-11T06:42:00.353Z,99.10
2018-07-11T06:43:00.307Z,98.62
2018-07-11T06:44:00.232Z,98.43
2018-07-11T06:45:00.122Z,99.00
2018-07-11T06:46:00.075Z,98.71
2018-07-11T06:46:59.983Z,98.24
2018-07-11T06:47:59.921Z,99.00
2018-07-11T06:48:59.863Z,98.62
2018-07-11T06:49:59.789Z,98.86
2018-07-11T06:50:59.672Z,98.67
2018-07-11T06:51:59.650Z,98.47
2018-07-11T06:52:59.527Z,98.86
2018-07-11T06:53:59.488Z,98.38
2018-07-11T06:54:59.332Z,98.57
2018-07-11T06:55:59.311Z,98.76
2018-07-11T06:56:59.213Z,98.67
2018-07-11T06:57:59.125Z,98.76
2018-07-11T06:58:59.093Z,98.67
2018-07-11T06:59:59.007Z,98.81
2018-07-11T07:00:58.878Z,98.52
2018-07-11T07:01:58.806Z,98.14
2018-07-11T07:02:58.727Z,98.72
2018-07-11T07:03:58.728Z,98.57
2018-07-11T07:04:58.636Z,98.48
2018-07-11T07:05:58.572Z,98.00
2018-07-11T07:06:58.482Z,98.38
2018-07-11T07:07:58.390Z,97.61
2018-07-11T07:08:58.334Z,97.90
2018-07-11T07:09:58.278Z,97.04
2018-07-11T07:10:58.203Z,97.28
2018-07-11T07:11:58.115Z,97.28
2018-07-11T07:12:58.037Z,96.61
2018-07-11T07:13:57.961Z,96.80
2018-07-11T07:14:57.886Z,96.70
2018-07-11T07:15:57.814Z,96.99
2018-07-11T07:16:57.727Z,96.80
2018-07-11T07:17:57.689Z,96.37
2018-07-11T07:18:57.599Z,96.47
2018-07-11T07:19:57.506Z,96.94
2018-07-11T07:20:57.454Z,96.85
2018-07-11T07:21:57.369Z,96.56
2018-07-11T07:22:57.292Z,96.56
2018-07-11T07:23:57.207Z,97.42
2018-07-11T07:24:57.149Z,96.37
2018-07-11T07:25:57.015Z,95.89
2018-07-11T07:26:56.943Z,95.60
2018-07-11T07:27:56.865Z,96.08
2018-07-11T07:28:56.851Z,95.89
2018-07-11T07:29:56.722Z,96.18
2018-07-11T07:30:56.647Z,95.89
2018-07-11T07:31:56.569Z,96.08
2018-07-11T07:32:56.499Z,96.08
2018-07-11T07:33:56.421Z,95.98
2018-07-11T07:34:56.395Z,96.13
2018-07-11T07:35:56.284Z,96.51
2018-07-11T07:36:56.235Z,96.42
2018-07-11T07:37:56.130Z,95.75
2018-07-11T07:38:56.057Z,96.42
2018-07-11T07:39:55.980Z,96.03
2018-07-11T07:40:56.783Z,96.13
2018-07-11T07:41:55.893Z,96.80
2018-07-11T07:42:55.812Z,95.75
2018-07-11T07:43:55.755Z,95.94
2018-07-11T07:44:55.651Z,95.94
2018-07-11T07:45:55.604Z,96.32
2018-07-11T07:46:55.528Z,96.13
2018-07-11T07:47:55.453Z,96.22
2018-07-11T07:48:55.384Z,96.51
2018-07-11T07:49:55.283Z,95.75
2018-07-11T07:50:55.223Z,94.79
2018-07-11T07:51:55.839Z,93.54
2018-07-11T07:52:55.155Z,93.44
2018-07-11T07:53:55.003Z,93.63
2018-07-11T07:54:54.934Z,94.31
2018-07-11T07:55:54.851Z,94.02
2018-07-11T07:56:54.737Z,93.44
2018-07-11T07:57:54.711Z,93.88
2018-07-11T07:58:54.634Z,93.01
2018-07-11T07:59:54.544Z,92.15
2018-07-11T08:00:54.488Z,92.82
2018-07-11T08:01:55.256Z,92.34
2018-07-11T08:02:54.331Z,92.63
2018-07-11T08:03:54.259Z,92.24
2018-07-11T08:04:54.178Z,92.34
2018-07-11T08:05:54.101Z,92.63
2018-07-11T08:06:54.098Z,92.34
2018-07-11T08:07:53.989Z,92.15
2018-07-11T08:08:53.890Z,92.97
2018-07-11T08:09:53.757Z,93.01
2018-07-11T08:10:53.737Z,92.77
2018-07-11T08:11:53.689Z,93.73
2018-07-11T08:12:53.591Z,93.26
2018-07-11T08:13:53.512Z,94.02
2018-07-11T08:14:53.431Z,94.21
2018-07-11T08:15:53.350Z,94.40
2018-07-11T08:16:53.287Z,94.50
2018-07-11T08:17:53.199Z,94.31
2018-07-11T08:18:53.144Z,94.54
2018-07-11T08:19:53.052Z,95.51
2018-07-11T08:20:52.983Z,95.75
2018-07-11T08:21:52.908Z,95.41
2018-07-11T08:22:52.848Z,95.98
2018-07-11T08:23:52.772Z,94.93
2018-07-11T08:24:52.675Z,94.84
2018-07-11T08:25:52.605Z,94.35
2018-07-11T08:26:52.536Z,94.26
2018-07-11T08:27:52.466Z,94.45
2018-07-11T08:28:52.382Z,93.97
2018-07-11T08:29:52.324Z,93.97
2018-07-11T08:30:52.259Z,94.74
2018-07-11T08:31:52.174Z,93.40
2018-07-11T08:32:52.108Z,93.78
2018-07-11T08:33:52.035Z,94.17
2018-07-11T08:34:51.940Z,93.40
2018-07-11T08:35:51.894Z,93.30
2018-07-11T08:36:51.808Z,93.40
2018-07-11T08:37:51.665Z,93.49
2018-07-11T08:38:51.644Z,93.78
2018-07-11T08:39:51.563Z,94.35
2018-07-11T08:40:51.427Z,93.88
2018-07-11T08:41:51.353Z,93.11
2018-07-11T08:42:51.286Z,93.49
2018-07-11T08:43:51.206Z,94.07
2018-07-11T08:44:51.140Z,93.73
2018-07-11T08:45:51.054Z,93.25
2018-07-11T08:46:50.980Z,93.35
2018-07-11T08:47:51.016Z,93.06
2018-07-11T08:48:50.833Z,92.39
2018-07-11T08:49:50.764Z,92.19
2018-07-11T08:50:50.691Z,92.15
2018-07-11T08:51:50.608Z,92.58
2018-07-11T08:52:50.534Z,93.54
2018-07-11T08:53:50.461Z,93.25
2018-07-11T08:54:50.387Z,92.96
2018-07-11T08:55:50.316Z,93.35
2018-07-11T08:56:50.260Z,92.48
2018-07-11T08:57:50.170Z,91.91
2018-07-11T08:58:50.090Z,92.58
2018-07-11T08:59:50.064Z,92.77
2018-07-11T09:00:49.950Z,92.39
2018-07-11T09:01:49.867Z,92.96
2018-07-11T09:02:49.892Z,92.19
2018-07-11T09:03:49.716Z,92.05
2018-07-11T09:04:49.642Z,91.86
2018-07-11T09:05:49.567Z,92.00
2018-07-11T09:06:49.496Z,92.29
2018-07-11T09:07:49.421Z,92.29
2018-07-11T09:08:49.356Z,91.91
2018-07-11T09:09:49.269Z,92.58
2018-07-11T09:10:49.228Z,93.06
2018-07-11T09:11:49.121Z,93.35
2018-07-11T09:12:49.046Z,93.63
2018-07-11T09:13:48.975Z,93.25
2018-07-11T09:14:48.905Z,92.43
2018-07-11T09:15:48.825Z,91.62
2018-07-11T09:16:48.761Z,92.14
2018-07-11T09:17:48.694Z,92.14
2018-07-11T09:18:48.603Z,91.09
2018-07-11T09:19:48.527Z,89.17
2018-07-11T09:20:48.461Z,89.32
2018-07-11T09:21:48.380Z,89.32
2018-07-11T09:22:48.311Z,89.22
2018-07-11T09:23:48.235Z,91.24
2018-07-11T09:24:48.165Z,91.91
2018-07-11T09:25:48.091Z,92.19
2018-07-11T09:26:48.013Z,90.75
2018-07-11T09:27:47.937Z,90.99
2018-07-11T09:28:47.863Z,90.80
2018-07-11T09:29:47.793Z,90.42
2018-07-11T09:30:47.715Z,90.99
2018-07-11T09:31:47.653Z,91.28
2018-07-11T09:32:47.575Z,90.61
2018-07-11T09:33:47.498Z,90.61
2018-07-11T09:34:47.424Z,90.90
2018-07-11T09:35:47.349Z,89.55
2018-07-11T09:36:47.279Z,89.55
2018-07-11T09:37:47.211Z,88.45
2018-07-11T09:38:47.166Z,89.40
2018-07-11T09:39:47.051Z,87.58
2018-07-11T09:40:46.984Z,88.64
2018-07-11T09:41:46.906Z,89.02
2018-07-11T09:42:46.840Z,88.93
2018-07-11T09:43:46.763Z,88.30
2018-07-11T09:44:46.684Z,85.57
2018-07-11T09:45:46.612Z,86.33
2018-07-11T09:46:46.539Z,83.54
2018-07-11T09:47:46.464Z,82.26
2018-07-11T09:48:46.394Z,84.66
2018-07-11T09:49:46.332Z,86.48
2018-07-11T09:50:46.251Z,85.24
2018-07-11T09:51:46.172Z,85.91
2018-07-11T09:52:46.099Z,83.31
2018-07-11T09:53:46.026Z,83.26
2018-07-11T09:54:45.950Z,83.93
2018-07-11T09:55:45.881Z,81.15
2018-07-11T09:56:45.804Z,81.34
2018-07-11T09:57:45.762Z,81.40
2018-07-11T09:58:45.659Z,82.45
2018-07-11T09:59:45.580Z,82.26
2018-07-11T10:00:45.511Z,83.22
2018-07-11T10:01:45.443Z,82.07
2018-07-11T10:02:45.369Z,81.49
2018-07-11T10:03:45.288Z,81.87
2018-07-11T10:04:45.219Z,82.26
2018-07-11T10:05:45.148Z,83.64
2018-07-11T10:06:45.077Z,81.63
2018-07-11T10:07:45.004Z,83.45
2018-07-11T10:08:44.927Z,82.40
2018-07-11T10:09:44.849Z,82.40
2018-07-11T10:10:44.774Z,82.43
2018-07-11T10:11:44.704Z,83.01
2018-07-11T10:12:44.629Z,81.76
2018-07-11T10:13:44.563Z,83.40
2018-07-11T10:14:44.482Z,79.75
2018-07-11T10:15:44.414Z,78.30
2018-07-11T10:16:44.407Z,79.36
2018-07-11T10:17:44.261Z,79.65
2018-07-11T10:18:44.193Z,79.36
2018-07-11T10:19:44.120Z,79.65
2018-07-11T10:20:44.045Z,79.65
2018-07-11T10:21:43.987Z,74.94
2018-07-11T10:22:43.899Z,72.73
2018-07-11T10:23:43.827Z,74.17
2018-07-11T10:24:43.750Z,74.17
2018-07-11T10:25:43.688Z,75.90
2018-07-11T10:26:43.608Z,74.55
2018-07-11T10:27:43.535Z,76.67
2018-07-11T10:28:43.469Z,76.86
2018-07-11T10:29:43.389Z,77.44
2018-07-11T10:30:43.317Z,77.44
2018-07-11T10:31:43.258Z,78.11
2018-07-11T10:32:43.175Z,77.83
2018-07-11T10:33:43.184Z,76.19
2018-07-11T10:34:43.027Z,75.52
2018-07-11T10:35:42.955Z,75.04
2018-07-11T10:36:42.882Z,74.94
2018-07-11T10:37:42.816Z,74.55
2018-07-11T10:38:42.731Z,74.37
2018-07-11T10:39:42.659Z,74.55
2018-07-11T10:40:42.589Z,75.90
2018-07-11T10:41:42.516Z,77.73
2018-07-11T10:42:42.449Z,77.92
2018-07-11T10:43:42.372Z,77.53
2018-07-11T10:44:42.299Z,77.53
2018-07-11T10:45:42.233Z,76.67
2018-07-11T10:46:42.147Z,77.53
2018-07-11T10:47:42.075Z,77.34
2018-07-11T10:48:42.004Z,77.83
2018-07-11T10:49:41.934Z,78.73
2018-07-11T10:50:41.861Z,79.50
2018-07-11T10:51:41.785Z,77.09
2018-07-11T10:52:41.713Z,76.81
2018-07-11T10:53:41.647Z,76.71
2018-07-11T10:54:41.572Z,75.75
2018-07-11T10:55:41.508Z,77.96
2018-07-11T10:56:41.423Z,76.81
2018-07-11T10:57:41.445Z,78.19
2018-07-11T10:58:41.274Z,74.79
2018-07-11T10:59:41.203Z,75.07
2018-07-11T11:00:41.187Z,75.69
2018-07-11T11:01:41.064Z,76.26
2018-07-11T11:02:41.008Z,73.28
2018-07-11T11:03:40.911Z,74.60
2018-07-11T11:04:40.873Z,73.15
2018-07-11T11:05:40.766Z,75.65
2018-07-11T11:06:40.696Z,73.83
2018-07-11T11:07:40.622Z,74.30
2018-07-11T11:08:40.555Z,74.98
2018-07-11T11:09:40.492Z,76.42
2018-07-11T11:10:40.400Z,74.25
2018-07-11T11:11:40.330Z,72.86
2018-07-11T11:12:40.257Z,71.81
2018-07-11T11:13:40.189Z,72.38
2018-07-11T11:14:40.126Z,74.05
2018-07-11T11:15:40.046Z,73.28
2018-07-11T11:16:39.967Z,71.55
2018-07-11T11:17:39.902Z,71.81
2018-07-11T11:18:39.824Z,73.28
2018-07-11T11:19:39.757Z,73.28
2018-07-11T11:20:39.677Z,73.77
2018-07-11T11:21:39.610Z,73.19
2018-07-11T11:22:39.542Z,74.05
2018-07-11T11:23:39.460Z,75.24
2018-07-11T11:24:39.396Z,74.15
2018-07-11T11:25:39.343Z,73.32
2018-07-11T11:26:39.247Z,74.38
2018-07-11T11:27:39.181Z,74.57
2018-07-11T11:28:39.102Z,71.59
2018-07-11T11:29:39.030Z,73.94
2018-07-11T11:30:38.956Z,73.94
2018-07-11T11:31:38.894Z,73.26
2018-07-11T11:32:38.810Z,71.62
2018-07-11T11:33:38.748Z,71.14
2018-07-11T11:34:38.673Z,67.39
2018-07-11T11:35:38.621Z,65.85
2018-07-11T11:36:38.524Z,66.81
2018-07-11T11:37:38.454Z,66.91
2018-07-11T11:38:38.380Z,65.94
2018-07-11T11:39:38.314Z,64.50
2018-07-11T11:40:38.238Z,64.12
2018-07-11T11:41:38.198Z,62.19
2018-07-11T11:42:38.137Z,62.19
2018-07-11T11:43:38.025Z,62.19
2018-07-11T11:44:37.959Z,63.28
2018-07-11T11:45:37.891Z,62.19
2018-07-11T11:46:37.809Z,64.43
2018-07-11T11:47:37.742Z,63.85
2018-07-11T11:48:37.663Z,61.83
2018-07-11T11:49:37.597Z,62.22
2018-07-11T11:50:37.524Z,63.18
2018-07-11T11:51:37.456Z,63.64
2018-07-11T11:52:37.379Z,64.59
2018-07-11T11:53:37.307Z,64.50
2018-07-11T11:54:37.243Z,63.25
2018-07-11T11:55:37.170Z,63.31
2018-07-11T11:56:37.097Z,64.37
2018-07-11T11:57:37.033Z,65.72
2018-07-11T11:58:36.990Z,65.43
2018-07-11T11:59:36.882Z,64.86
2018-07-11T12:00:36.817Z,65.05
2018-07-11T12:01:36.748Z,66.39
2018-07-11T12:02:36.749Z,65.97
2018-07-11T12:03:36.667Z,65.24
2018-07-11T12:04:36.609Z,64.82
2018-07-11T12:05:36.541Z,65.69
2018-07-11T12:06:36.464Z,66.27
2018-07-11T12:07:36.303Z,66.55
2018-07-11T12:08:36.303Z,67.03
2018-07-11T12:09:36.263Z,67.90
2018-07-11T12:10:36.191Z,68.44
2018-07-11T12:11:36.076Z,69.40
2018-07-11T12:12:36.084Z,70.94
2018-07-11T12:13:35.939Z,73.63
2018-07-11T12:14:35.860Z,75.17
2018-07-11T12:15:36.319Z,75.94
2018-07-11T12:16:35.744Z,77.09
2018-07-11T12:17:35.656Z,79.60
2018-07-11T12:18:35.600Z,75.94
2018-07-11T12:19:35.492Z,79.07
2018-07-11T12:20:35.426Z,74.88
2018-07-11T12:21:35.441Z,71.39
2018-07-11T12:22:35.274Z,69.27
2018-07-11T12:23:35.195Z,68.12
2018-07-11T12:24:35.115Z,66.20
2018-07-11T12:25:34.988Z,65.72
2018-07-11T12:26:34.970Z,65.05
2018-07-11T12:27:34.858Z,64.95
2018-07-11T12:28:34.834Z,65.05
2018-07-11T12:29:34.758Z,65.23
2018-07-11T12:30:34.700Z,64.95
2018-07-11T12:31:34.639Z,66.49
2018-07-11T12:32:34.535Z,67.83
2018-07-11T12:33:34.479Z,67.54
2018-07-11T12:34:34.406Z,66.77
2018-07-11T12:35:34.279Z,65.62
2018-07-11T12:36:34.220Z,63.32
2018-07-11T12:37:34.186Z,61.84
2018-07-11T12:38:34.147Z,61.87
2018-07-11T12:39:34.044Z,63.41
2018-07-11T12:40:33.894Z,63.22
2018-07-11T12:41:33.864Z,63.28
2018-07-11T12:42:33.808Z,63.96
2018-07-11T12:43:33.761Z,64.05
2018-07-11T12:44:33.647Z,64.53
2018-07-11T12:45:33.558Z,65.59
2018-07-11T12:46:33.456Z,66.07
2018-07-11T12:47:33.415Z,65.62
2018-07-11T12:48:33.309Z,64.05
2018-07-11T12:49:33.226Z,63.86
2018-07-11T12:50:33.157Z,64.53
2018-07-11T12:51:33.157Z,65.88